PDT,Max TemperatureF,Mean TemperatureF,Min TemperatureF,Max Dew PointF,MeanDew PointF,Min DewpointF,Max Humidity, Mean Humidity, Min Humidity, Max Sea Level PressureIn, Mean Sea Level PressureIn, Min Sea Level PressureIn, Max VisibilityMiles, Mean VisibilityMiles, Min VisibilityMiles, Max Wind SpeedMPH, Mean Wind SpeedMPH, Max Gust SpeedMPH,PrecipitationIn, CloudCover, Events, WindDirDegrees
2012-10-1,84,62,40,46,41,35,96,57,18,30.26,30.12,29.94,10,10,9,9,3,12,0.00,0,,57
2012-10-2,82,63,43,49,34,19,86,49,12,30.26,30.04,29.90,10,8,1,30,7,40,0.00,3,,332
2012-10-3,66,51,35,37,30,24,76,49,22,30.44,30.34,30.26,10,9,6,13,5,17,0.00,1,,342
2012-10-4,69,52,34,35,30,19,89,52,15,30.35,30.30,30.26,10,10,10,17,6,20,0.00,0,,358
2012-10-5,69,49,28,32,26,18,78,46,14,30.40,30.33,30.27,10,10,10,15,3,21,0.00,0,,351
2012-10-6,69,48,27,35,27,23,84,51,18,30.38,30.28,30.19,10,10,10,17,6,20,0.00,0,,337
2012-10-7,69,49,29,37,30,26,92,57,22,30.21,30.11,29.98,10,10,8,9,1,9,0.00,0,,31
2012-10-8,72,51,29,41,33,27,92,57,22,30.00,29.96,29.89,10,10,8,9,2,9,0.00,0,,31
2012-10-9,74,55,35,44,38,33,92,60,27,30.09,30.03,29.98,10,10,8,6,2,8,0.00,0,,6
2012-10-10,77,57,36,46,40,35,92,58,24,29.98,29.90,29.81,10,10,9,9,2,9,0.00,0,,12
2012-10-11,74,55,36,47,41,35,92,64,35,29.98,29.89,29.78,10,10,7,8,2,10,0.00,0,,325
2012-10-12,67,51,35,53,44,33,93,68,43,29.96,29.85,29.78,10,10,6,22,6,28,0.12,4,Rain,225
2012-10-13,71,62,53,54,51,49,86,70,53,30.16,30.10,29.99,10,10,10,21,9,25,T,2,Rain,215
2012-10-14,73,64,54,58,52,49,90,67,44,30.14,30.03,29.94,10,10,10,15,8,20,0.12,2,Rain,181
2012-10-15,75,67,59,60,57,54,93,73,53,29.93,29.82,29.60,10,10,6,23,10,29,0.15,5,Rain,194
2012-10-16,68,59,49,61,41,31,81,54,26,30.18,29.89,29.54,10,10,10,36,15,46,T,1,Rain,248
2012-10-17,63,51,38,40,37,31,92,62,32,30.30,30.26,30.21,10,10,10,12,4,15,0.00,0,,217
2012-10-18,63,48,33,43,39,32,100,72,43,30.27,30.11,29.87,10,10,2,8,2,10,0.00,0,,313
2012-10-19,67,60,53,51,47,38,71,58,44,29.89,29.77,29.67,10,10,10,30,12,35,T,3,,224
2012-10-20,60,52,43,42,35,30,70,53,36,29.90,29.84,29.73,10,10,10,29,14,35,0.00,1,,233
2012-10-21,58,47,35,39,34,28,85,59,33,29.93,29.88,29.81,10,10,10,13,3,15,0.00,3,,162
2012-10-22,46,41,35,41,37,33,93,79,65,29.79,29.66,29.57,10,10,6,14,5,16,0.14,6,Rain,306
2012-10-23,56,44,32,38,36,34,100,74,47,29.95,29.85,29.72,10,10,10,16,5,22,T,3,Rain,175
2012-10-24,49,41,32,40,35,30,92,77,61,30.20,30.04,29.95,10,10,7,15,6,22,0.03,5,Rain,310
2012-10-25,52,43,34,40,38,33,100,80,59,30.45,30.38,30.22,10,9,7,8,1,9,T,4,,103
2012-10-26,45,38,31,43,37,31,100,88,76,30.41,30.24,30.14,10,9,6,12,3,14,0.03,6,Rain,310
2012-10-27,45,38,31,48,43,37,100,88,76,30.12,30.03,29.87,10,8,3,12,3,14,0.03,6,Rain,160
2012-10-28,65,54,42,55,50,41,100,82,63,29.92,29.89,29.85,10,9,6,10,3,13,0.17,4,Rain,90
2012-10-29,72,63,54,55,50,45,100,69,38,30.03,29.92,29.82,10,10,10,33,9,40,0.03,3,Rain,224
2012-10-30,63,56,49,56,51,47,93,80,67,30.02,29.90,29.82,10,10,10,9,4,10,0.02,4,Rain,102
2012-10-31,57,52,47,54,51,47,100,97,93,29.82,29.74,29.67,10,8,2,8,3,13,0.01,3,Rain,268